Cutchogue, New York
Current Conditions -  °F | °C
As of 10:53 PM on Monday 22 Dec 2014 (Local Time) from KFOK Reporting Station
Overcast Overcast  
Wind Chill: 43°   Ceiling: 1700
Heat Index: 48°   Visibility: 10mi
Dew Point: 42°   Wind: 13mph
Humidity: 80%   Direction: 100°E
Pressure: 30.21"   Gusts: 22mph
Location:  41.01°N, 72.49°W
Report Text: KFOK 230353Z AUTO 10011G19KT 10SM OVC017 09/06 A3021 RMK AO2 SLP232 T00890056 TSNO
Loading
Personal Weather Stations






























Interactive Weather Map New forecast layout! Learn more

10-Day Weather Forecast

Advertisements
Track Severe Weather on mobile